Lahaina, HI

7:45 PM HST on September 16, 2014 (GMT -1000)
Launiupoko | Change Station
CLOSE
Current Station
Personal Weather Station
Location: Lahaina, HI
Elevation: 758 ft
Nearby Weather Stations

Elev 758 ft 20.85 °N, 156.63 °W | Updated 0 second ago

Scattered Clouds
Scattered Clouds
78.1 °F
Feels Like 80 °F
N
3.0
Wind Variable Wind from ENE
Gusts 9.0 mph

Today
High -- | Low -- °F
--% Chance of Precip.
Yesterday
High -- | Low -- °F
Precip. -- in
6:14 AM 6:28 PM
Last Quarter, 39% visible
Pressure 29.92 in
Visibility 15.0 miles
Clouds Few 2500 ft
Few 4500 ft
Scattered Clouds 6000 ft
Heat Index 80 °F
Dew Point 68 °F
Humidity 70%
Rainfall 0.00 in
Snow Depth Not available.
UV 0.0 out of 12
Pollen Not available.
Air Quality Not available.
Flu Activity Not available.
METAR PHJH 170350Z 04012KT 15SM VCSH FEW025 FEW045 SCT060 27/22 A2992 RMK VCSH LAST

More Conditions Fewer Conditions

Pressure 29.92 in
Visibility 15.0 miles
Clouds Few 2500 ft
Few 4500 ft
Scattered Clouds 6000 ft
Heat Index 80 °F
Dew Point 68 °F
Humidity 70%
Rainfall 0.00 in
Snow Depth Not available.
UV 0.0 out of 12
Pollen Not available.
Air Quality Not available.
Flu Activity Not available.
METAR PHJH 170350Z 04012KT 15SM VCSH FEW025 FEW045 SCT060 27/22 A2992 RMK VCSH LAST

More Conditions Fewer Conditions

10-Day Weather Forecast

Almanac

Astronomy

Sep. 16, 2014 Rise Set
Actual Time 6:14 AM HST 6:28 PM HST
Civil Twilight 5:51 AM HST 6:50 PM HST
Nautical Twilight 5:26 AM HST 7:16 PM HST
Astronomical Twilight 5:00 AM HST 7:42 PM HST
Moon 12:05 AM HST (9/16) 1:29 PM HST (9/16)
Length of Visible Light 12h 58m
Length of Day
12h 14m
Tomorrow will be 1m 10s shorter.
Last Quarter, 39% of the Moon is Illuminated
Sep 17
Last Quarter
Sep 24
New
Oct 1
First Quarter
Oct 8
Full
Oct 15
Last Quarter

Yesterday's Extremes

State Highs State Lows

Community

WunderPhotos

Upload Photos

1,753,968 photos uploaded!

Nearby

Snow Depth

Station Depth Elevation
No new snow has been reported.

Earthquake Activity

City Distance Mag. Time & Date
No recent earthquake activity has been reported nearby.
Minimum magnitude displayed is 2.5.

Coastal Water Temperatures

Place Temperature
No Stations Reporting

Nearby Weather Stations